World of Logs combat log analyzer allows gamers to save, share and analyze their raiding experiences conveniently and thoroughly in the Blizzard MMO World of Warcraft. If you're new here, make sure you check out the tour for a 1 minute introduction. If you have any questions, we're happy to answer them on the forums.

DPS HPS
Odyn
Helya
Guarm
Reports for Twilight Ascendant Council - statistics
# Date Time Damage DPS Guild Realm
201 01 Aug 2012 03:37 43.67M 200551.4 Shatter US-Area 52
202 21 Aug 2012 03:37 43.96M 201798.8 Резонанс EU-Гордунни
203 22 Feb 2012 03:37 43.62M 200239.8 Kinetic US-Frostmane
204 26 Mar 2012 03:38 43.97M 201426.0 Aventis EU-Ревущий фьорд
205 28 Jun 2012 03:38 43.89M 201040.0 Testguild EU-Nathrezim
206 09 Apr 2012 03:38 43.65M 199897.2 Sparks EU-The Maelstrom
207 07 Jul 2012 03:38 44.02M 201589.9 genuine EU-Blackrock
208 09 Apr 2012 03:38 43.65M 199849.6 Nightcraft EU-Frostmane
209 26 Aug 2012 03:38 43.70M 200037.8 Avast US-Frostmourne
210 06 Aug 2012 03:38 43.71M 199868.8 Whatever EU-Auchindoun
211 19 Jun 2012 03:38 43.87M 200344.8 Unhuman US-Arthas
212 11 May 2012 03:39 43.82M 199868.3 Kabr logs EU-Черный Шрам
213 05 Jul 2012 03:39 44.12M 201118.2 Logs EU-Zenedar
214 07 Aug 2012 03:39 44.56M 202797.9 Фласок нет EU-Дракономор
215 04 Mar 2012 03:39 44.51M 202527.6 The Feral Aggressors US-Bronzebeard
216 16 Apr 2012 03:39 43.84M 199488.3 Dominus Aurora EU-Khaz'goroth
217 30 Jul 2012 03:39 44.84M 204021.2 Cosworth_randoms EU-Разувий
218 04 Jun 2012 03:40 43.64M 198003.0 Avalon Tarde EU-Exodar
219 31 Jul 2012 03:40 43.67M 197918.4 Project Casual2 US-Haomarush
220 12 Feb 2012 03:40 43.80M 198507.3 Prowler's US-Lightbringer
221 01 Apr 2012 03:40 44.11M 199880.6 we got this EU-Blackmoore
222 05 Mar 2012 03:40 44.05M 199415.1 Bingo Break US-Area 52
223 08 May 2012 03:41 44.16M 199721.0 Cistara's Logs US-Illidan
224 23 Jul 2012 03:41 43.68M 197528.1 Dubious EU-Jaedenar
225 24 Feb 2012 03:41 44.70M 202033.2 Mav's Logs US-Area 52
226 24 Feb 2012 03:41 44.70M 202014.0 Existence US-Darkspear
227 05 Aug 2012 03:41 43.67M 197379.4 Ladies First EU-Drak'thul
228 05 Aug 2012 03:41 43.67M 197318.7 Suck'thulandia EU-Drak'thul
229 17 Apr 2012 03:41 43.95M 198545.4 Rupture EU-Archimonde
230 20 Mar 2012 03:41 44.23M 199741.2 Conspire EU-Chamber of Aspects
231 27 Feb 2012 03:41 44.55M 201023.4 Alone US-Aerie Peak
232 02 Aug 2012 03:41 43.79M 197547.2 Orden EU-Азурегос
233 09 Apr 2012 03:41 43.81M 197617.9 Litany of Fury US-Thaurissan
234 28 Mar 2012 03:41 45.10M 203351.3 essential EU-Dun Morogh
235 31 Mar 2012 03:41 43.12M 194250.5 Irae AoD EU-Mug'thol
236 25 Jul 2012 03:42 44.80M 201783.7 nothing special EU-Frostwolf
237 18 Jun 2012 03:42 43.81M 197220.2 Gwen Stefani US-Illidan
238 13 Jan 2012 03:42 44.25M 199146.2 Бакси всех вайпает EU-Ревущий фьорд
239 03 May 2012 03:42 43.59M 195991.7 After Life US-Whisperwind
240 03 Aug 2012 03:42 44.50M 199896.0 Innervision EU-Onyxia
241 13 Feb 2012 03:42 43.67M 196175.7 strike EU-Дракономор
242 14 Aug 2012 03:42 43.16M 193858.1 genuine EU-Blackrock
243 18 Jul 2012 03:42 43.70M 196209.1 SMaRT's logs EU-Ясеневый лес
244 21 May 2012 03:42 43.73M 196310.2 Магнум EU-Гордунни
245 16 Apr 2012 03:42 43.71M 196082.8 Siegesrausch EU-Antonidas
246 25 Mar 2012 03:42 44.06M 197645.4 Adrasteia US-Eredar
247 11 Jul 2012 03:42 43.66M 195836.2 Party Girls US-Blood Furnace
248 25 Mar 2012 03:42 44.06M 197632.1 WeLikeNumbers US-Arygos
249 21 May 2012 03:42 43.73M 196114.7 Реборн EU-Гордунни
250 22 May 2012 03:42 43.73M 196112.9 Старый соболь EU-Гордунни
251 02 Aug 2012 03:43 44.07M 197557.4 Справедливые EU-Термоштепсель
252 29 Feb 2012 03:43 43.62M 195521.5 MoonzReloaded EU-Destromath
253 08 Aug 2012 03:43 43.33M 194142.2 Gambit EU-Frostmourne
254 12 Feb 2012 03:43 43.46M 194671.1 StS EU-Frostwolf
255 08 Aug 2012 03:43 43.33M 194069.2 nur so EU-Frostmourne
256 21 Jun 2012 03:43 43.62M 195059.9 Фласок нет EU-Дракономор
257 10 Jul 2012 03:43 44.13M 197300.5 Indecisive EU-Emerald Dream
258 01 May 2012 03:43 43.64M 195100.1 1338 EU-Zuluhed
259 23 Aug 2012 03:44 43.67M 194891.5 Reanimation US-Barthilas
260 18 Mar 2012 03:44 43.71M 195032.8 "М И Б" 87 EU-Черный Шрам
261 05 Apr 2012 03:44 43.62M 194553.8 Лесько Logs EU-Свежеватель Душ
262 28 Apr 2012 03:44 43.64M 194653.9 Serendipity US-Barthilas
263 05 Jul 2012 03:44 43.65M 194509.2 Разбавили водой EU-Азурегос
264 28 Mar 2012 03:44 44.19M 196795.2 Invalid Argument EU-Sylvanas
265 09 Jul 2012 03:44 43.66M 194403.2 Trollheals PUG US-Bleeding Hollow
266 25 Aug 2012 03:44 43.62M 194118.4 mnm US-Proudmoore
267 18 Mar 2012 03:44 44.46M 197815.5 myth rnd twink EU-Eredar
268 24 Aug 2012 03:44 43.62M 194077.8 Dishonor Elite US-Proudmoore
269 24 Apr 2012 03:44 44.94M 199888.3 Internecion US-Stormreaver
270 29 Mar 2012 03:44 43.66M 194169.7 Sparks EU-The Maelstrom
271 13 May 2012 03:44 43.62M 193881.9 CRITBANNER'S GUILD US-Barthilas
272 19 Aug 2012 03:45 44.32M 196895.1 Prime EU-Defias Brotherhood
273 04 Jun 2012 03:45 43.62M 193756.8 Eureka EU-Dun Modr
274 23 Jun 2012 03:45 43.56M 193367.5 Shade of Arrows US-Velen
275 16 Apr 2012 03:45 44.27M 196364.4 The Bro Code EU-Mannoroth
276 19 Jul 2012 03:45 43.73M 193641.6 Reanimation US-Barthilas
277 31 Jul 2012 03:45 44.50M 196968.2 Adapt US-Spirestone
278 31 May 2012 03:46 43.89M 194094.5 Lùminis InCensús EU-Gorgonnash
279 14 Jul 2012 03:46 43.95M 194224.1 Get Well Soon US-Korgath
280 04 Jan 2012 03:46 43.71M 193031.9 Gambit EU-Frostmourne
281 20 Mar 2012 03:46 44.10M 194770.0 Barbarians EU-Kilrogg
282 26 Apr 2012 03:46 43.66M 192770.2 Improvizaciya EU-Свежеватель Душ
283 05 Apr 2012 03:46 44.30M 195445.3 Intent LiveLogs US-Kel'Thuzad
284 11 Jun 2012 03:46 43.58M 192087.2 Winchester EU-Kazzak
285 14 Aug 2012 03:46 43.69M 192506.2 Team No Report US-Sargeras
286 15 Apr 2012 03:47 43.66M 192241.5 Fev US-Burning Blade
287 13 Jul 2012 03:47 43.66M 192136.9 Titanium Jacks EU-Lightbringer
288 05 Mar 2012 03:47 44.58M 196143.6 Intent LiveLogs US-Kel'Thuzad
289 19 Apr 2012 03:47 44.56M 196059.8 Test321 EU-Kil'jaeden
290 07 Apr 2012 03:47 43.28M 190222.3 Lusting on Trash US-Arthas
291 30 Jul 2012 03:47 43.68M 191790.7 Illumination US-Khaz'goroth
292 02 Apr 2012 03:47 43.64M 191487.6 Pwnanza EU-Kazzak
293 21 Apr 2012 03:47 43.77M 191976.2 Lamdeeze log US-Magtheridon
294 09 Aug 2012 03:48 44.37M 194586.0 Reanimation US-Barthilas
295 13 May 2012 03:48 44.27M 194061.1 AcromatiX EU-Wrathbringer
296 02 Apr 2012 03:48 43.64M 191184.7 Pwnanza EU-Kazzak
297 13 May 2012 03:48 43.69M 191385.6 Subtle Insanity US-Stormreaver
298 22 Mar 2012 03:48 43.68M 191346.3 Toca do Goblin US-Azralon
299 14 May 2012 03:48 43.88M 192119.2 Фьюджуми EU-Гордунни
300 11 Feb 2012 03:48 43.32M 189376.8 Нюрс EU-Дракономор

Please do not close the page with the ad you want to report.

I've posted a guide on how to report misbehaving ads on the forum. Please follow the instructions and help make the internet a safer place. Thanks for you time.